Time;durP1;ratioP1;P1;durP2;ratioP2;P2;SDS_P1;SDS_P2;PMS_P1;PMS_P2;Temp;Humidity;BMP_temperature;BMP_pressure;BME280_temperature;BME280_humidity;BME280_pressure;Samples;Min_cycle;Max_cycle;Signal;HPM_P1;HPM_P2
2023/10/28 00:03:13;;;;;;;2.80;2.60;;;;;;;9.52;100.00;99622.91;6203011;28;20588;-73
2023/10/28 00:06:34;;;;;;;3.07;2.53;;;;;;;9.43;100.00;99624.72;6204493;28;20757;-73
2023/10/28 00:09:55;;;;;;;3.20;3.00;;;;;;;9.51;100.00;99635.53;6205480;28;20742;-72
2023/10/28 00:13:17;;;;;;;2.90;2.67;;;;;;;9.50;100.00;99628.47;6208232;28;20327;-73
2023/10/28 00:16:38;;;;;;;2.47;2.27;;;;;;;9.50;100.00;99635.69;6205760;28;20507;-73
2023/10/28 00:20:03;;;;;;;3.43;3.13;;;;;;;9.37;100.00;99632.56;6207320;28;20245;-73
2023/10/28 00:23:25;;;;;;;4.70;3.90;;;;;;;9.31;100.00;99631.38;6205127;28;20225;-72
2023/10/28 00:26:47;;;;;;;3.53;3.00;;;;;;;9.38;100.00;99635.13;6196726;28;20244;-72
2023/10/28 00:30:10;;;;;;;3.63;3.40;;;;;;;9.47;100.00;99630.66;6207350;28;20225;-72
2023/10/28 00:33:34;;;;;;;2.60;2.40;;;;;;;9.38;100.00;99632.44;6199874;28;20233;-72
2023/10/28 00:36:55;;;;;;;2.97;2.77;;;;;;;9.45;100.00;99640.72;6207463;28;20292;-72
2023/10/28 00:40:17;;;;;;;3.33;3.03;;;;;;;9.48;100.00;99640.38;6202860;28;20244;-69
2023/10/28 00:43:39;;;;;;;2.57;2.37;;;;;;;9.47;100.00;99639.53;6190269;28;20312;-73
2023/10/28 00:47:02;;;;;;;2.20;2.00;;;;;;;9.42;100.00;99649.09;6205256;28;20257;-73
2023/10/28 00:50:24;;;;;;;3.57;3.27;;;;;;;9.52;100.00;99649.81;6216047;28;20228;-73
2023/10/28 00:53:45;;;;;;;3.90;3.60;;;;;;;9.61;100.00;99655.09;6205288;28;20233;-73
2023/10/28 00:57:06;;;;;;;4.07;3.77;;;;;;;9.53;100.00;99654.22;6200915;28;20274;-72
2023/10/28 01:00:29;;;;;;;3.20;3.00;;;;;;;9.46;100.00;99659.38;6200127;28;20221;-72
2023/10/28 01:03:51;;;;;;;2.93;2.17;;;;;;;9.42;100.00;99659.84;6205344;28;20230;-73
2023/10/28 01:07:13;;;;;;;3.07;2.77;;;;;;;9.35;100.00;99666.84;6202161;28;20706;-73
2023/10/28 01:10:35;;;;;;;2.83;2.33;;;;;;;9.46;100.00;99664.75;6201633;28;20221;-72
2023/10/28 01:13:55;;;;;;;3.23;2.90;;;;;;;9.54;100.00;99662.13;6221921;28;20253;-72
2023/10/28 01:17:16;;;;;;;3.43;2.70;;;;;;;9.55;100.00;99661.09;6203701;28;20286;-72
2023/10/28 01:20:38;;;;;;;3.73;2.97;;;;;;;9.57;100.00;99666.34;6194149;28;20282;-74
2023/10/28 01:24:01;;;;;;;3.77;2.70;;;;;;;9.58;100.00;99668.00;6206070;28;20233;-74
2023/10/28 01:27:23;;;;;;;3.03;2.30;;;;;;;9.53;100.00;99660.41;6179995;28;20237;-74
2023/10/28 01:30:44;;;;;;;1.90;1.80;;;;;;;9.53;100.00;99660.41;6203518;28;20236;-74
2023/10/28 01:34:05;;;;;;;2.17;2.07;;;;;;;9.45;100.00;99667.63;6199946;28;20292;-73
2023/10/28 01:37:26;;;;;;;2.90;2.70;;;;;;;9.32;100.00;99673.41;6203519;28;20240;-73
2023/10/28 01:40:48;;;;;;;2.00;1.80;;;;;;;9.46;100.00;99674.66;6204261;28;20245;-72
2023/10/28 01:44:11;;;;;;;3.53;2.77;;;;;;;9.50;100.00;99670.66;6204604;28;20650;-73
2023/10/28 01:47:34;;;;;;;1.77;1.67;;;;;;;9.59;100.00;99662.50;6202676;28;20233;-73
2023/10/28 01:50:57;;;;;;;3.87;3.13;;;;;;;9.51;100.00;99659.72;6194372;28;20591;-73
2023/10/28 01:54:18;;;;;;;4.23;2.60;;;;;;;9.48;100.00;99654.69;6205071;28;20237;-73
2023/10/28 01:57:40;;;;;;;3.63;2.80;;;;;;;9.46;100.00;99662.06;6207899;28;20783;-73
2023/10/28 02:01:01;;;;;;;3.57;3.17;;;;;;;9.53;100.00;99659.59;6209366;28;20245;-73
2023/10/28 02:04:23;;;;;;;2.90;2.63;;;;;;;9.45;100.00;99656.88;6196011;28;20240;-73
2023/10/28 02:07:45;;;;;;;3.70;2.20;;;;;;;9.45;100.00;99654.16;6201713;28;20619;-74
2023/10/28 02:11:07;;;;;;;3.50;2.67;;;;;;;9.49;100.00;99648.28;6202673;28;20232;-73
2023/10/28 02:14:29;;;;;;;2.60;2.40;;;;;;;9.46;100.00;99654.00;6208990;28;20241;-74
2023/10/28 02:17:50;;;;;;;2.30;2.10;;;;;;;9.45;100.00;99654.16;6205011;28;20263;-73
2023/10/28 02:21:11;;;;;;;2.63;2.30;;;;;;;9.38;100.00;99645.03;6203836;28;20229;-74
2023/10/28 02:24:32;;;;;;;2.80;2.03;;;;;;;9.41;100.00;99648.25;6207838;28;20805;-73
2023/10/28 02:27:53;;;;;;;2.70;2.50;;;;;;;9.45;100.00;99657.69;6206973;28;20638;-73
2023/10/28 02:31:16;;;;;;;2.93;2.70;;;;;;;9.36;100.00;99655.97;6205157;28;20225;-74
2023/10/28 02:34:37;;;;;;;3.00;2.77;;;;;;;9.28;100.00;99665.81;6206335;28;20248;-73
2023/10/28 02:37:58;;;;;;;2.03;1.90;;;;;;;9.20;100.00;99671.16;6203628;28;20233;-74
2023/10/28 02:41:19;;;;;;;3.00;2.67;;;;;;;9.23;100.00;99671.66;6206394;28;20240;-73
2023/10/28 02:44:40;;;;;;;3.37;2.50;;;;;;;9.28;100.00;99671.19;6208480;28;20527;-73
2023/10/28 02:48:03;;;;;;;2.60;2.40;;;;;;;9.31;100.00;99674.41;6204344;28;20233;-74
2023/10/28 02:51:24;;;;;;;2.20;2.07;;;;;;;9.28;100.00;99672.03;6206600;28;20319;-73
2023/10/28 02:54:45;;;;;;;7.37;3.27;;;;;;;9.35;100.00;99669.53;6205808;28;20256;-73
2023/10/28 02:58:07;;;;;;;2.70;2.50;;;;;;;9.32;100.00;99673.41;6204278;28;20268;-74
2023/10/28 03:01:28;;;;;;;2.77;2.57;;;;;;;9.33;100.00;99675.09;6199969;28;20413;-73
2023/10/28 03:04:50;;;;;;;2.53;2.33;;;;;;;9.32;100.00;99676.13;6207338;28;20241;-73
2023/10/28 03:08:12;;;;;;;2.70;2.50;;;;;;;9.34;100.00;99679.50;6198126;28;20843;-74
2023/10/28 03:11:34;;;;;;;2.97;2.70;;;;;;;9.25;100.00;99676.88;6209534;28;20636;-74
2023/10/28 03:14:55;;;;;;;2.70;2.47;;;;;;;9.31;100.00;99678.94;6204371;28;20254;-74
2023/10/28 03:18:16;;;;;;;4.53;3.33;;;;;;;9.41;100.00;99680.53;6207020;28;20518;-73
2023/10/28 03:21:39;;;;;;;2.57;2.37;;;;;;;9.34;100.00;99679.50;6204213;28;20513;-73
2023/10/28 03:25:00;;;;;;;2.80;2.60;;;;;;;9.31;100.00;99677.09;6210242;28;20236;-73
2023/10/28 03:28:21;;;;;;;3.23;2.73;;;;;;;9.27;100.00;99672.19;6206436;28;20614;-74
2023/10/28 03:31:42;;;;;;;2.63;2.47;;;;;;;9.25;100.00;99675.03;6217698;28;20650;-74
2023/10/28 03:35:02;;;;;;;3.23;3.03;;;;;;;9.27;100.00;99667.66;6203037;28;20233;-73
2023/10/28 03:38:25;;;;;;;2.90;2.70;;;;;;;9.19;100.00;99675.66;6205389;28;20237;-72
2023/10/28 03:41:46;;;;;;;4.37;3.97;;;;;;;9.21;100.00;99675.50;6204426;28;20229;-73
2023/10/28 03:45:08;;;;;;;2.50;2.30;;;;;;;9.23;100.00;99681.56;6207002;28;20237;-73
2023/10/28 03:48:29;;;;;;;3.23;2.93;;;;;;;9.24;100.00;99686.78;6204350;28;20237;-73
2023/10/28 03:51:50;;;;;;;3.20;2.57;;;;;;;9.29;100.00;99679.09;6201239;28;20233;-73
2023/10/28 03:55:13;;;;;;;3.03;2.73;;;;;;;9.25;100.00;99679.56;6197670;28;20229;-74
2023/10/28 03:58:35;;;;;;;5.80;4.47;;;;;;;9.35;100.00;99675.78;6201430;28;20371;-74
2023/10/28 04:01:56;;;;;;;9.53;4.43;;;;;;;9.30;100.00;99670.03;6200903;28;20249;-74
2023/10/28 04:05:17;;;;;;;3.03;2.83;;;;;;;9.30;100.00;99679.94;6199245;28;20229;-74
2023/10/28 04:08:38;;;;;;;2.90;2.70;;;;;;;9.22;100.00;99687.97;6206091;28;20225;-74
2023/10/28 04:12:01;;;;;;;4.03;3.73;;;;;;;9.07;100.00;99690.38;6195696;28;20305;-73
2023/10/28 04:15:22;;;;;;;4.07;3.67;;;;;;;9.09;100.00;99688.38;6198725;28;20339;-74
2023/10/28 04:18:43;;;;;;;4.77;4.37;;;;;;;9.07;100.00;99697.59;6201192;28;20229;-74
2023/10/28 04:22:04;;;;;;;5.47;4.50;;;;;;;8.95;100.00;99690.78;6202191;28;20501;-73
2023/10/28 04:25:25;;;;;;;6.93;4.13;;;;;;;9.04;100.00;99685.28;6208652;28;20237;-73
2023/10/28 04:28:48;;;;;;;3.83;3.53;;;;;;;8.93;100.00;99693.59;6217131;28;20230;-73
2023/10/28 04:32:09;;;;;;;5.40;4.17;;;;;;;9.06;100.00;99691.34;6203373;28;20249;-73
2023/10/28 04:35:30;;;;;;;5.63;3.67;;;;;;;9.18;100.00;99694.66;6204594;28;20233;-73
2023/10/28 04:38:51;;;;;;;4.17;3.77;;;;;;;9.21;100.00;99686.25;6202264;28;21391;-74
2023/10/28 04:42:12;;;;;;;6.73;4.57;;;;;;;9.20;100.00;99687.28;6206737;28;21238;-73
2023/10/28 04:45:34;;;;;;;6.43;4.17;;;;;;;9.22;100.00;99690.66;6200011;28;20237;-73
2023/10/28 04:48:55;;;;;;;4.83;3.87;;;;;;;9.19;100.00;99697.19;6202308;28;20237;-74
2023/10/28 04:52:17;;;;;;;4.07;3.67;;;;;;;9.24;100.00;99686.78;6204575;28;20755;-74
2023/10/28 04:55:38;;;;;;;4.80;4.13;;;;;;;9.18;100.00;99687.41;6205843;28;20246;-73
2023/10/28 04:58:59;;;;;;;4.63;4.23;;;;;;;9.18;100.00;99684.72;6201575;28;20324;-72
2023/10/28 05:02:22;;;;;;;5.67;4.57;;;;;;;9.12;100.00;99679.97;6203498;28;20322;-73
2023/10/28 05:05:43;;;;;;;5.23;4.80;;;;;;;9.13;100.00;99679.00;6197986;28;20590;-74
2023/10/28 05:09:04;;;;;;;4.90;4.33;;;;;;;9.13;100.00;99686.19;6205528;28;20618;-74
2023/10/28 05:12:25;;;;;;;6.43;3.80;;;;;;;9.16;100.00;99692.09;6205399;28;20253;-72
2023/10/28 05:15:46;;;;;;;5.30;4.60;;;;;;;9.21;100.00;99688.94;6203602;28;20217;-73
2023/10/28 05:19:08;;;;;;;5.23;4.73;;;;;;;9.12;100.00;99692.56;6203726;28;20607;-73
2023/10/28 05:22:30;;;;;;;6.60;5.90;;;;;;;9.11;100.00;99686.38;6187819;28;20234;-73
2023/10/28 05:25:51;;;;;;;4.10;3.63;;;;;;;9.08;100.00;99697.41;6206388;28;20233;-73
2023/10/28 05:29:12;;;;;;;5.33;4.43;;;;;;;9.01;100.00;99699.03;6202784;28;20312;-74
2023/10/28 05:32:33;;;;;;;6.30;5.63;;;;;;;9.07;100.00;99702.97;6201400;28;20324;-73
2023/10/28 05:35:55;;;;;;;4.90;4.40;;;;;;;9.03;100.00;99707.81;6202741;28;20253;-74
2023/10/28 05:39:16;;;;;;;4.90;4.37;;;;;;;9.00;100.00;99705.41;6206850;28;20225;-74
2023/10/28 05:42:37;;;;;;;6.20;5.60;;;;;;;8.95;100.00;99706.91;6208724;28;20257;-74
2023/10/28 05:45:59;;;;;;;5.13;4.63;;;;;;;9.08;100.00;99712.69;6206787;28;20233;-74
2023/10/28 05:49:20;;;;;;;3.73;3.43;;;;;;;9.15;100.00;99711.09;6204833;28;20257;-73
2023/10/28 05:52:42;;;;;;;4.33;3.93;;;;;;;9.08;100.00;99716.25;6205168;28;20232;-74
2023/10/28 05:56:04;;;;;;;4.10;3.63;;;;;;;9.15;100.00;99720.00;6204466;28;20233;-74
2023/10/28 05:59:25;;;;;;;4.10;3.70;;;;;;;9.19;100.00;99725.91;6202257;28;20562;-74
2023/10/28 06:02:46;;;;;;;4.77;4.27;;;;;;;9.21;100.00;99730.13;6194695;28;20237;-73
2023/10/28 06:06:08;;;;;;;5.00;3.83;;;;;;;9.03;100.00;99723.09;6210379;28;20566;-73
2023/10/28 06:09:33;;;;;;;6.13;4.80;;;;;;;9.07;100.00;99727.16;6199589;28;20233;-73
2023/10/28 06:12:54;;;;;;;4.17;3.87;;;;;;;9.19;100.00;99733.97;6198180;28;20282;-73
2023/10/28 06:16:16;;;;;;;4.70;4.17;;;;;;;9.13;100.00;99730.06;6205827;28;20237;-74
2023/10/28 06:19:37;;;;;;;4.30;3.87;;;;;;;9.11;100.00;99729.38;6203852;28;20565;-73
2023/10/28 06:22:58;;;;;;;5.77;5.27;;;;;;;9.17;100.00;99738.66;6206243;28;20226;-73
2023/10/28 06:26:20;;;;;;;4.27;3.33;;;;;;;9.10;100.00;99741.13;6198365;28;20240;-73
2023/10/28 06:29:41;;;;;;;5.00;3.80;;;;;;;9.16;100.00;99735.13;6203562;28;20218;-73
2023/10/28 06:33:03;;;;;;;6.80;5.30;;;;;;;9.20;100.00;99743.75;6199511;28;20229;-73
2023/10/28 06:36:24;;;;;;;5.60;3.97;;;;;;;9.24;100.00;99751.31;6200952;28;20571;-73
2023/10/28 06:39:47;;;;;;;5.33;4.73;;;;;;;9.22;100.00;99750.63;6202649;28;20229;-73
2023/10/28 06:43:11;;;;;;;5.27;4.77;;;;;;;9.22;100.00;99755.19;6206331;28;20259;-74
2023/10/28 06:46:33;;;;;;;4.63;3.80;;;;;;;9.27;100.00;99756.41;6206972;28;20233;-73
2023/10/28 06:49:54;;;;;;;4.07;3.67;;;;;;;9.26;100.00;99761.94;6205264;28;20621;-73
2023/10/28 06:53:15;;;;;;;3.67;3.37;;;;;;;9.25;100.00;99761.09;6201514;28;20229;-74
2023/10/28 06:56:36;;;;;;;4.83;4.03;;;;;;;9.21;100.00;99761.56;6207190;28;20233;-73
2023/10/28 06:59:58;;;;;;;4.07;3.70;;;;;;;9.17;100.00;99768.25;6207477;28;20316;-73
2023/10/28 07:03:19;;;;;;;4.27;3.97;;;;;;;9.20;100.00;99778.69;6209704;28;20249;-74
2023/10/28 07:06:45;;;;;;;7.27;3.83;;;;;;;9.26;100.00;99768.13;6206857;28;20361;-74
2023/10/28 07:10:07;;;;;;;3.77;3.43;;;;;;;9.20;100.00;99776.81;6199675;28;20233;-74
2023/10/28 07:13:28;;;;;;;5.33;4.00;;;;;;;9.18;100.00;99783.38;6215427;28;20514;-75
2023/10/28 07:16:50;;;;;;;4.70;4.27;;;;;;;9.28;100.00;99784.16;6202590;28;22588;-74
2023/10/28 07:20:12;;;;;;;3.47;3.17;;;;;;;9.25;100.00;99785.28;6196358;28;20226;-74
2023/10/28 07:23:33;;;;;;;4.70;3.67;;;;;;;9.27;100.00;99788.66;6205881;28;20226;-75
2023/10/28 07:26:54;;;;;;;4.23;3.83;;;;;;;9.23;100.00;99803.44;6200569;28;20792;-74
2023/10/28 07:30:15;;;;;;;7.63;3.23;;;;;;;9.31;100.00;99795.44;6207816;28;20225;-73
2023/10/28 07:33:38;;;;;;;4.40;3.93;;;;;;;9.43;100.00;99804.09;6208621;28;20591;-75
2023/10/28 07:36:59;;;;;;;3.50;3.20;;;;;;;9.29;100.00;99802.81;6199840;28;20228;-74
2023/10/28 07:40:20;;;;;;;5.23;4.77;;;;;;;9.04;100.00;99811.63;6209086;28;20256;-74
2023/10/28 07:43:42;;;;;;;4.77;4.30;;;;;;;9.13;100.00;99812.56;6205737;28;20229;-74
2023/10/28 07:47:03;;;;;;;4.67;4.27;;;;;;;9.19;100.00;99811.94;6186509;28;20305;-74
2023/10/28 07:50:26;;;;;;;4.93;4.10;;;;;;;9.15;100.00;99810.56;6199310;28;20221;-74
2023/10/28 07:53:49;;;;;;;4.47;4.03;;;;;;;9.22;100.00;99809.78;6203130;28;20225;-74
2023/10/28 07:57:10;;;;;;;5.80;4.30;;;;;;;9.35;100.00;99809.41;6193138;28;20241;-71
2023/10/28 08:00:31;;;;;;;5.73;5.23;;;;;;;9.27;100.00;99812.88;6198874;28;20315;-71
2023/10/28 08:03:53;;;;;;;4.63;4.23;;;;;;;9.35;100.00;99815.63;6208867;28;20229;-73
2023/10/28 08:07:15;;;;;;;4.83;4.33;;;;;;;9.41;100.00;99816.84;6199013;28;20261;-72
2023/10/28 08:10:39;;;;;;;4.33;3.90;;;;;;;9.36;100.00;99824.56;6203965;28;20237;-77
2023/10/28 08:14:03;;;;;;;4.87;4.40;;;;;;;9.57;100.00;99825.06;6203728;28;20312;-76
2023/10/28 08:17:24;;;;;;;5.43;4.83;;;;;;;9.58;100.00;99830.28;6205792;28;20259;-77
2023/10/28 08:20:45;;;;;;;4.77;4.20;;;;;;;9.46;100.00;99833.38;6207609;28;20229;-76
2023/10/28 08:24:11;;;;;;;4.83;4.43;;;;;;;9.50;100.00;99837.44;6204156;28;20226;-76
2023/10/28 08:27:33;;;;;;;6.23;4.80;;;;;;;9.47;100.00;99841.28;6197303;28;20312;-76
2023/10/28 08:30:54;;;;;;;5.97;4.53;;;;;;;9.23;100.00;99849.13;6203414;28;20241;-76
2023/10/28 08:34:15;;;;;;;4.30;3.93;;;;;;;9.31;100.00;99843.84;6203042;28;20229;-76
2023/10/28 08:37:36;;;;;;;6.10;5.53;;;;;;;9.54;100.00;99836.13;6197189;28;20242;-76
2023/10/28 08:41:03;;;;;;;4.97;4.57;;;;;;;9.75;100.00;99833.09;6200169;28;20241;-74
2023/10/28 08:44:28;;;;;;;11.13;6.80;;;;;;;9.65;100.00;99830.53;6202192;28;20598;-76
2023/10/28 08:47:51;;;;;;;5.83;5.33;;;;;;;9.71;100.00;99845.19;6201548;28;20308;-76
2023/10/28 08:51:14;;;;;;;5.97;4.57;;;;;;;9.62;100.00;99850.50;6207083;28;20237;-76
2023/10/28 08:54:35;;;;;;;6.77;4.80;;;;;;;9.61;100.00;99843.44;6205953;28;20312;-76
2023/10/28 08:58:00;;;;;;;6.30;5.73;;;;;;;9.57;100.00;99844.72;6204714;28;20331;-76
2023/10/28 09:01:22;;;;;;;7.43;6.07;;;;;;;9.47;100.00;99857.44;6201130;28;20543;-75
2023/10/28 09:04:43;;;;;;;7.17;6.43;;;;;;;9.57;100.00;99855.50;6200066;28;20226;-75
2023/10/28 09:08:05;;;;;;;7.20;5.73;;;;;;;9.53;100.00;99855.97;6203293;28;20622;-75
2023/10/28 09:11:27;;;;;;;6.87;6.10;;;;;;;9.16;100.00;99861.50;6201093;28;20237;-75
2023/10/28 09:14:49;;;;;;;8.53;6.17;;;;;;;9.22;100.00;99870.81;6194703;28;20220;-77
2023/10/28 09:18:10;;;;;;;8.77;6.80;;;;;;;9.17;100.00;99873.09;6201001;28;20232;-77
2023/10/28 09:21:32;;;;;;;6.67;6.03;;;;;;;9.34;100.00;99865.06;6205289;28;20615;-77
2023/10/28 09:24:53;;;;;;;6.60;4.47;;;;;;;9.74;100.00;99864.59;6199944;28;20240;-78
2023/10/28 09:28:17;;;;;;;5.90;4.73;;;;;;;9.92;100.00;99862.69;6201613;28;20229;-77
2023/10/28 09:31:40;;;;;;;8.03;5.13;;;;;;;10.52;100.00;99855.53;6200906;28;20224;-78
2023/10/28 09:35:05;;;;;;;6.07;4.57;;;;;;;10.64;100.00;99862.31;6204665;28;20228;-78
2023/10/28 09:38:27;;;;;;;6.47;5.67;;;;;;;10.50;100.00;99867.47;6209770;28;20502;-78
2023/10/28 09:41:49;;;;;;;7.13;6.53;;;;;;;10.19;100.00;99875.19;6188462;28;20237;-77
2023/10/28 09:45:11;;;;;;;6.87;5.23;;;;;;;10.05;100.00;99881.97;6192646;28;20226;-78
2023/10/28 09:48:38;;;;;;;8.20;5.93;;;;;;;10.05;100.00;99886.53;6187868;28;20229;-78
2023/10/28 09:52:07;;;;;;;4.83;4.37;;;;;;;10.32;100.00;99864.84;6193165;28;20224;-77
2023/10/28 09:55:34;;;;;;;5.97;5.40;;;;;;;9.85;100.00;99877.78;6184403;28;20233;-77
2023/10/28 09:59:00;;;;;;;8.63;6.13;;;;;;;9.57;100.00;99878.88;6202973;28;20240;-79
2023/10/28 10:02:32;;;;;;;6.37;5.73;;;;;;;9.40;100.00;99880.59;6204061;28;20515;-78
2023/10/28 10:05:56;;;;;;;6.90;6.30;;;;;;;9.60;100.00;99887.50;6200847;28;20621;-77
2023/10/28 10:09:19;;;;;;;8.37;6.93;;;;;;;9.80;100.00;99881.94;6200787;28;20233;-82
2023/10/28 10:12:40;;;;;;;6.40;5.77;;;;;;;9.81;100.00;99872.84;6197639;28;20229;-81
2023/10/28 10:16:03;;;;;;;5.73;5.23;;;;;;;9.79;100.00;99874.84;6198783;28;21507;-79
2023/10/28 10:19:33;;;;;;;7.30;5.87;;;;;;;9.89;100.00;99875.63;6205588;28;20225;-80
2023/10/28 10:23:02;;;;;;;8.17;6.67;;;;;;;9.80;100.00;99882.78;6211443;28;20228;-79
2023/10/28 10:26:26;;;;;;;6.13;5.53;;;;;;;9.54;100.00;99888.09;6208774;28;20232;-81
2023/10/28 10:29:47;;;;;;;6.00;5.40;;;;;;;9.65;100.00;99881.66;6190101;28;20218;-79
2023/10/28 10:33:09;;;;;;;6.67;5.97;;;;;;;9.87;100.00;99886.53;6205588;28;20320;-79
2023/10/28 10:36:35;;;;;;;7.30;6.60;;;;;;;9.58;100.00;99889.50;6215488;28;20285;-79
2023/10/28 10:40:08;;;;;;;5.23;4.73;;;;;;;9.68;100.00;99883.19;6210026;28;20872;-78
2023/10/28 10:43:31;;;;;;;7.50;6.03;;;;;;;9.64;100.00;99898.78;6209129;28;20260;-77
2023/10/28 10:46:56;;;;;;;6.97;5.50;;;;;;;9.55;100.00;99895.16;6216432;28;20240;-79
2023/10/28 10:50:17;;;;;;;5.83;5.30;;;;;;;9.61;100.00;99891.88;6205984;28;20630;-78
2023/10/28 10:53:42;;;;;;;6.90;6.30;;;;;;;9.76;100.00;99899.41;6210942;28;20345;-80
2023/10/28 10:57:06;;;;;;;6.47;5.53;;;;;;;9.59;100.00;99899.25;6204678;28;20229;-79
2023/10/28 11:00:27;;;;;;;6.53;5.30;;;;;;;9.70;100.00;99900.84;6203928;28;20742;-79
2023/10/28 11:03:49;;;;;;;6.33;5.77;;;;;;;9.79;100.00;99894.53;6203205;28;20229;-78
2023/10/28 11:07:10;;;;;;;6.40;5.70;;;;;;;9.73;100.00;99899.69;6209883;28;20595;-80
2023/10/28 11:10:31;;;;;;;5.80;5.13;;;;;;;9.68;100.00;99896.66;6203612;28;20440;-80
2023/10/28 11:13:53;;;;;;;6.07;5.57;;;;;;;9.73;100.00;99902.38;6208074;28;20576;-79
2023/10/28 11:17:14;;;;;;;4.90;4.50;;;;;;;9.83;100.00;99898.63;6192271;28;20518;-79
2023/10/28 11:20:35;;;;;;;8.10;5.07;;;;;;;9.82;100.00;99896.94;6208772;28;20225;-79
2023/10/28 11:23:57;;;;;;;5.97;5.10;;;;;;;9.80;100.00;99898.09;6206214;28;20237;-79
2023/10/28 11:27:22;;;;;;;5.07;4.57;;;;;;;9.85;100.00;99895.75;6198496;28;20806;-80
2023/10/28 11:30:51;;;;;;;6.50;5.47;;;;;;;9.84;100.00;99886.00;6207459;28;20328;-79
2023/10/28 11:34:13;;;;;;;5.67;5.07;;;;;;;10.08;100.00;99883.50;6196856;28;20224;-77
2023/10/28 11:37:35;;;;;;;4.17;3.73;;;;;;;9.93;100.00;99893.16;6212652;28;20233;-79
2023/10/28 11:41:04;;;;;;;4.90;4.43;;;;;;;10.01;100.00;99887.84;6208148;28;20225;-78
2023/10/28 11:44:27;;;;;;;4.83;4.33;;;;;;;10.01;100.00;99887.84;6207150;28;20237;-79
2023/10/28 11:47:51;;;;;;;6.77;5.33;;;;;;;10.06;100.00;99889.03;6204919;28;20225;-78
2023/10/28 11:51:12;;;;;;;6.47;5.70;;;;;;;10.24;100.00;99880.97;6210538;28;20225;-79
2023/10/28 11:54:34;;;;;;;6.53;5.90;;;;;;;10.36;100.00;99875.16;6198756;28;20606;-79
2023/10/28 11:57:55;;;;;;;6.20;5.37;;;;;;;10.45;100.00;99873.34;6206734;28;20233;-79
2023/10/28 12:01:16;;;;;;;8.07;7.27;;;;;;;10.40;100.00;99873.81;6203747;28;20229;-78
2023/10/28 12:04:39;;;;;;;6.67;5.77;;;;;;;10.32;100.00;99870.25;6198183;28;20324;-78
2023/10/28 12:08:00;;;;;;;10.07;7.50;;;;;;;10.18;100.00;99877.03;6206937;28;20545;-78
2023/10/28 12:11:21;;;;;;;8.73;7.83;;;;;;;10.23;100.00;99879.25;6201119;28;20824;-81
2023/10/28 12:14:42;;;;;;;11.23;7.23;;;;;;;10.25;100.00;99875.41;6199828;28;20237;-80
2023/10/28 12:18:04;;;;;;;9.33;6.73;;;;;;;10.27;100.00;99867.16;6204826;28;20233;-80
2023/10/28 12:21:28;;;;;;;8.10;7.13;;;;;;;10.23;100.00;99868.50;6205031;28;20611;-78
2023/10/28 12:24:50;;;;;;;7.90;6.80;;;;;;;10.32;100.00;99864.84;6201847;28;20221;-77
2023/10/28 12:28:11;;;;;;;11.63;9.33;;;;;;;10.58;100.00;99870.19;6202914;28;20252;-78
2023/10/28 12:31:33;;;;;;;8.27;7.23;;;;;;;10.59;100.00;99867.34;6208543;28;20233;-79
2023/10/28 12:34:54;;;;;;;11.00;8.13;;;;;;;10.82;100.00;99868.47;6203011;28;20241;-72
2023/10/28 12:38:16;;;;;;;12.63;8.77;;;;;;;10.52;100.00;99869.00;6193893;28;20237;-72
2023/10/28 12:41:37;;;;;;;8.93;7.67;;;;;;;10.40;100.00;99868.44;6199325;28;20225;-73
2023/10/28 12:44:58;;;;;;;10.27;7.43;;;;;;;10.32;100.00;99868.41;6206569;28;20225;-74
2023/10/28 12:48:20;;;;;;;9.53;8.17;;;;;;;10.44;100.00;99858.19;6208049;28;20513;-72
2023/10/28 12:51:41;;;;;;;10.10;7.40;;;;;;;10.34;100.00;99868.22;6200339;28;20221;-75
2023/10/28 12:55:04;;;;;;;8.27;7.37;;;;;;;10.43;100.00;99870.78;6204030;28;20342;-74
2023/10/28 12:58:26;;;;;;;11.07;7.83;;;;;;;10.59;100.00;99861.97;6205504;28;20240;-74
2023/10/28 13:01:48;;;;;;;13.63;8.70;;;;;;;10.77;100.00;99868.09;6207070;28;20229;-74
2023/10/28 13:05:09;;;;;;;14.67;8.57;;;;;;;10.68;100.00;99866.38;6201320;28;20251;-76
2023/10/28 13:08:32;;;;;;;14.23;10.33;;;;;;;10.74;100.00;99865.75;6203654;28;20230;-75
2023/10/28 13:11:56;;;;;;;10.50;8.67;;;;;;;10.86;100.00;99860.91;6195554;28;20233;-73
2023/10/28 13:15:17;;;;;;;14.07;10.30;;;;;;;11.02;100.00;99853.72;6203308;28;20241;-73
2023/10/28 13:18:39;;;;;;;11.47;8.90;;;;;;;11.20;100.00;99859.00;6197481;28;20237;-73
2023/10/28 13:22:00;;;;;;;12.73;9.90;;;;;;;11.20;100.00;99856.28;6207475;28;20241;-74
2023/10/28 13:25:21;;;;;;;10.47;9.33;;;;;;;11.17;100.00;99849.38;6204305;28;20268;-74
2023/10/28 13:28:45;;;;;;;9.47;7.83;;;;;;;11.32;100.00;99854.97;6194784;28;20619;-71
2023/10/28 13:32:08;;;;;;;12.17;6.97;;;;;;;11.16;100.00;99855.75;6199435;28;20323;-70
2023/10/28 13:35:29;;;;;;;11.50;7.83;;;;;;;11.10;100.00;99855.56;6207211;28;20241;-73
2023/10/28 13:38:49;;;;;;;9.13;8.23;;;;;;;11.16;100.00;99858.47;6203506;28;20336;-73
2023/10/28 13:42:10;;;;;;;8.07;7.30;;;;;;;11.18;100.00;99850.22;6203127;28;20608;-74
2023/10/28 13:45:32;;;;;;;8.93;7.67;;;;;;;11.10;100.00;99856.41;6201427;28;20555;-74
2023/10/28 13:48:55;;;;;;;8.67;7.87;;;;;;;11.20;100.00;99857.13;6200928;28;20233;-74
2023/10/28 13:52:15;;;;;;;12.03;8.87;;;;;;;11.10;100.00;99860.97;6206966;28;20516;-73
2023/10/28 13:55:37;;;;;;;9.90;9.00;;;;;;;11.23;100.00;99846.00;6199557;28;20237;-74
2023/10/28 13:58:58;;;;;;;10.53;8.60;;;;;;;11.31;100.00;99853.25;6191746;28;20229;-73
2023/10/28 14:02:20;;;;;;;9.30;8.17;;;;;;;11.30;100.00;99856.13;6190357;28;20236;-75
2023/10/28 14:05:41;;;;;;;22.10;18.87;;;;;;;12.06;100.00;99854.84;6188834;28;20233;-74
2023/10/28 14:09:03;;;;;;;32.87;29.60;;;;;;;11.96;100.00;99854.19;6189388;28;20241;-71
2023/10/28 14:12:25;;;;;;;321.10;290.80;;;;;;;12.48;100.00;99860.84;6190233;28;20232;-72
2023/10/28 14:15:46;;;;;;;379.43;340.93;;;;;;;12.65;100.00;99858.94;6184966;28;20240;-77
2023/10/28 14:19:08;;;;;;;87.80;78.87;;;;;;;12.58;100.00;99850.66;6189998;28;20662;-75
2023/10/28 14:22:29;;;;;;;16.17;11.17;;;;;;;12.46;100.00;99849.34;6182032;28;21615;-75
2023/10/28 14:25:51;;;;;;;12.23;10.90;;;;;;;12.52;100.00;99851.38;6189063;28;20304;-75
2023/10/28 14:29:12;;;;;;;9.43;7.20;;;;;;;12.10;100.00;99847.25;6187001;28;20634;-74
2023/10/28 14:32:35;;;;;;;7.13;5.10;;;;;;;11.92;100.00;99845.56;6189172;28;21220;-75
2023/10/28 14:36:03;;;;;;;7.70;6.23;;;;;;;11.93;100.00;99851.84;6188719;28;20237;-74
2023/10/28 14:39:26;;;;;;;9.23;7.70;;;;;;;11.99;100.00;99845.75;6184336;28;20224;-74
2023/10/28 14:42:47;;;;;;;8.23;6.60;;;;;;;11.92;100.00;99844.72;6188900;28;20241;-75
2023/10/28 14:46:10;;;;;;;9.10;6.33;;;;;;;11.78;100.00;99845.41;6189907;28;20225;-74
2023/10/28 14:49:31;;;;;;;6.60;5.90;;;;;;;11.69;100.00;99849.97;6182318;28;20229;-74
2023/10/28 14:52:54;;;;;;;8.70;6.70;;;;;;;11.62;100.00;99845.38;6191189;28;20237;-74
2023/10/28 14:56:15;;;;;;;6.70;6.10;;;;;;;11.63;100.00;99839.81;6187248;28;20236;-74
2023/10/28 14:59:36;;;;;;;8.13;7.33;;;;;;;11.49;100.00;99842.34;6188209;28;20229;-74
2023/10/28 15:02:57;;;;;;;8.87;7.33;;;;;;;11.42;100.00;99846.69;6188335;28;20232;-74
2023/10/28 15:06:19;;;;;;;7.63;6.70;;;;;;;11.38;100.00;99848.03;6189342;28;20464;-74
2023/10/28 15:09:41;;;;;;;7.93;6.80;;;;;;;11.35;100.00;99853.78;6191395;28;20257;-74
2023/10/28 15:13:02;;;;;;;7.30;6.60;;;;;;;11.31;100.00;99850.56;6191228;28;20225;-73
2023/10/28 15:16:24;;;;;;;5.97;5.47;;;;;;;11.34;100.00;99852.09;6192377;28;20332;-74
2023/10/28 15:19:46;;;;;;;5.67;5.17;;;;;;;11.34;100.00;99858.34;6189763;28;20229;-74
2023/10/28 15:23:09;;;;;;;7.73;6.33;;;;;;;11.43;100.00;99851.09;6188733;28;20805;-74
2023/10/28 15:26:33;;;;;;;6.50;5.90;;;;;;;11.41;100.00;99853.13;6191976;28;20245;-74
2023/10/28 15:29:54;;;;;;;6.07;4.93;;;;;;;11.40;100.00;99856.81;6193386;28;20236;-74
2023/10/28 15:33:15;;;;;;;7.17;6.03;;;;;;;11.33;100.00;99845.84;6190807;28;20324;-74
2023/10/28 15:36:36;;;;;;;6.93;6.23;;;;;;;11.37;100.00;99854.47;6192339;28;20229;-74
2023/10/28 15:39:57;;;;;;;6.23;5.63;;;;;;;11.32;100.00;99854.97;6195953;28;20678;-74
2023/10/28 15:43:19;;;;;;;6.47;5.80;;;;;;;11.28;100.00;99859.81;6189213;28;20237;-73
2023/10/28 15:46:42;;;;;;;6.27;5.63;;;;;;;11.22;100.00;99859.66;6197173;28;20614;-73